createdAt,value
2023-04-30T00:00:00.635Z,2.1
2023-04-30T00:05:00.531Z,4.2
2023-04-30T00:10:00.588Z,4.0
2023-04-30T00:15:00.560Z,1.8
2023-04-30T00:20:00.574Z,1.9
2023-04-30T00:25:00.535Z,2.4
2023-04-30T00:30:00.630Z,1.8
2023-04-30T00:35:00.536Z,2.2
2023-04-30T00:40:00.658Z,0.8
2023-04-30T00:45:00.494Z,0.9
2023-04-30T00:50:00.576Z,0.1
2023-04-30T00:55:00.560Z,0.3
2023-04-30T01:00:00.620Z,0.0
2023-04-30T01:05:00.512Z,1.3
2023-04-30T01:10:00.544Z,0.3
2023-04-30T01:15:00.489Z,1.4
2023-04-30T01:20:00.620Z,0.6
2023-04-30T01:25:00.536Z,1.0
2023-04-30T01:30:00.608Z,0.0
2023-04-30T01:35:03.389Z,0.0
2023-04-30T01:40:00.593Z,0.0
2023-04-30T01:45:00.528Z,0.0
2023-04-30T01:50:00.624Z,0.2
2023-04-30T01:55:00.550Z,0.1
2023-04-30T02:00:00.582Z,0.0
2023-04-30T02:05:00.488Z,1.4
2023-04-30T02:10:00.905Z,0.4
2023-04-30T02:15:00.531Z,1.1
2023-04-30T02:20:00.601Z,1.9
2023-04-30T02:25:00.539Z,1.0
2023-04-30T02:30:00.538Z,0.7
2023-04-30T02:35:00.541Z,0.6
2023-04-30T02:40:00.558Z,0.6
2023-04-30T02:45:00.525Z,0.1
2023-04-30T02:50:00.576Z,0.7
2023-04-30T02:55:00.508Z,0.8
2023-04-30T03:00:00.548Z,0.2
2023-04-30T03:05:00.532Z,1.2
2023-04-30T03:10:00.545Z,1.4
2023-04-30T03:15:00.519Z,2.0
2023-04-30T03:20:00.735Z,0.3
2023-04-30T03:25:00.515Z,2.4
2023-04-30T03:30:00.577Z,0.7
2023-04-30T03:35:00.538Z,0.6
2023-04-30T03:40:00.683Z,1.9
2023-04-30T03:45:00.530Z,0.9
2023-04-30T03:50:00.539Z,0.6
2023-04-30T03:55:00.644Z,1.8
2023-04-30T04:00:00.549Z,1.7
2023-04-30T04:05:00.557Z,2.6
2023-04-30T04:10:00.723Z,1.5
2023-04-30T04:15:00.544Z,0.4
2023-04-30T04:20:00.592Z,0.6
2023-04-30T04:25:00.497Z,0.6
2023-04-30T04:30:00.609Z,3.1
2023-04-30T04:35:00.564Z,2.6
2023-04-30T04:40:00.543Z,5.0
2023-04-30T04:45:00.520Z,3.5
2023-04-30T04:50:00.588Z,2.4
2023-04-30T04:55:00.894Z,1.8
2023-04-30T05:00:00.953Z,1.7
2023-04-30T05:05:00.529Z,1.0
2023-04-30T05:10:00.598Z,2.7
2023-04-30T05:15:00.533Z,4.2
2023-04-30T05:20:00.559Z,4.4
2023-04-30T05:25:00.536Z,5.4
2023-04-30T05:30:00.593Z,5.5
2023-04-30T05:35:00.532Z,4.6
2023-04-30T05:40:00.550Z,3.2
2023-04-30T05:45:00.525Z,4.5
2023-04-30T05:50:00.544Z,3.4
2023-04-30T05:55:00.537Z,4.4
2023-04-30T06:00:00.707Z,4.5
2023-04-30T06:05:00.589Z,6.3
2023-04-30T06:10:00.547Z,3.4
2023-04-30T06:15:00.544Z,4.8
2023-04-30T06:20:00.597Z,2.8
2023-04-30T06:25:00.517Z,5.5
2023-04-30T06:30:00.562Z,3.4
2023-04-30T06:35:00.628Z,4.4
2023-04-30T06:40:00.569Z,5.3
2023-04-30T06:45:00.493Z,3.0
2023-04-30T06:50:00.589Z,4.6
2023-04-30T06:55:00.555Z,6.4
2023-04-30T07:00:00.595Z,3.1
2023-04-30T07:05:00.581Z,6.7
2023-04-30T07:10:00.586Z,5.5
2023-04-30T07:15:00.547Z,5.4
2023-04-30T07:20:00.592Z,6.7
2023-04-30T07:25:00.650Z,4.2
2023-04-30T07:30:00.586Z,3.8
2023-04-30T07:35:00.564Z,5.9
2023-04-30T07:40:00.632Z,4.0
2023-04-30T07:45:00.539Z,7.2
2023-04-30T07:50:00.628Z,5.5
2023-04-30T07:55:00.549Z,2.9
2023-04-30T08:00:00.607Z,6.6
2023-04-30T08:05:00.626Z,8.7
2023-04-30T08:10:00.570Z,9.2
2023-04-30T08:15:00.541Z,3.0
2023-04-30T08:20:00.620Z,4.1
2023-04-30T08:25:00.865Z,9.2
2023-04-30T08:30:00.563Z,5.4
2023-04-30T08:35:00.690Z,8.4
2023-04-30T08:40:00.599Z,3.4
2023-04-30T08:45:00.725Z,8.4
2023-04-30T08:50:00.591Z,8.9
2023-04-30T08:55:00.549Z,5.5
2023-04-30T09:00:00.653Z,8.1
2023-04-30T09:05:00.598Z,5.6
2023-04-30T09:10:00.595Z,5.5
2023-04-30T09:15:00.549Z,5.7
2023-04-30T09:20:00.553Z,6.0
2023-04-30T09:25:00.540Z,6.2
2023-04-30T09:30:00.574Z,9.9
2023-04-30T09:35:00.572Z,3.7
2023-04-30T09:40:00.628Z,4.9
2023-04-30T09:45:00.557Z,8.1
2023-04-30T09:50:00.839Z,5.4
2023-04-30T09:55:00.581Z,6.5
2023-04-30T10:00:00.701Z,6.6
2023-04-30T10:05:00.541Z,6.1
2023-04-30T10:10:00.571Z,6.9
2023-04-30T10:15:00.550Z,6.8
2023-04-30T10:20:00.680Z,4.0
2023-04-30T10:25:00.543Z,6.4
2023-04-30T10:30:00.722Z,6.2
2023-04-30T10:35:00.564Z,8.0
2023-04-30T10:40:00.576Z,9.0
2023-04-30T10:45:00.480Z,4.6
2023-04-30T10:50:00.727Z,6.0
2023-04-30T10:55:00.544Z,8.2
2023-04-30T11:00:00.571Z,7.5
2023-04-30T11:05:00.623Z,3.6
2023-04-30T11:10:00.586Z,9.2
2023-04-30T11:15:00.549Z,7.6
2023-04-30T11:20:00.573Z,4.7
2023-04-30T11:25:00.548Z,5.4
2023-04-30T11:30:00.674Z,11.1
2023-04-30T11:35:00.679Z,5.3
2023-04-30T11:40:00.585Z,4.7
2023-04-30T11:45:00.549Z,10.8
2023-04-30T11:50:00.600Z,9.7
2023-04-30T11:55:00.740Z,7.4
2023-04-30T12:00:00.553Z,5.3
2023-04-30T12:05:00.718Z,6.4
2023-04-30T12:10:00.613Z,5.6
2023-04-30T12:15:00.537Z,7.7
2023-04-30T12:20:00.601Z,7.1
2023-04-30T12:25:00.635Z,7.3
2023-04-30T12:30:00.828Z,5.2
2023-04-30T12:35:00.531Z,5.8
2023-04-30T12:40:00.641Z,3.2
2023-04-30T12:45:00.533Z,7.1
2023-04-30T12:50:00.633Z,4.7
2023-04-30T12:55:00.690Z,5.5
2023-04-30T13:00:00.600Z,6.0
2023-04-30T13:05:00.563Z,5.3
2023-04-30T13:10:00.573Z,5.8
2023-04-30T13:15:00.541Z,5.6
2023-04-30T13:20:00.689Z,6.2
2023-04-30T13:25:00.597Z,1.7
2023-04-30T13:30:00.557Z,7.5
2023-04-30T13:35:00.543Z,3.9
2023-04-30T13:40:00.589Z,6.7
2023-04-30T13:45:00.563Z,3.7
2023-04-30T13:50:00.574Z,6.7
2023-04-30T13:55:00.642Z,1.7
2023-04-30T14:00:00.787Z,5.4
2023-04-30T14:05:06.990Z,5.2
2023-04-30T14:10:00.668Z,4.5
2023-04-30T14:15:00.529Z,6.5
2023-04-30T14:20:00.538Z,5.0
2023-04-30T14:25:00.547Z,4.3
2023-04-30T14:30:00.622Z,4.1
2023-04-30T14:35:00.528Z,3.8
2023-04-30T14:40:00.596Z,5.3
2023-04-30T14:45:00.594Z,2.8
2023-04-30T14:50:00.544Z,4.2
2023-04-30T14:55:00.648Z,5.6
2023-04-30T15:00:00.592Z,4.1
2023-04-30T15:05:00.538Z,3.2
2023-04-30T15:10:00.690Z,5.2
2023-04-30T15:15:00.493Z,2.4
2023-04-30T15:20:00.594Z,2.4
2023-04-30T15:25:00.557Z,1.0
2023-04-30T15:30:00.787Z,1.1
2023-04-30T15:35:00.526Z,0.2
2023-04-30T15:40:00.848Z,4.7
2023-04-30T15:45:00.528Z,1.7
2023-04-30T15:50:00.574Z,7.8
2023-04-30T15:55:00.534Z,4.6
2023-04-30T16:00:00.674Z,4.0
2023-04-30T16:05:00.541Z,3.2
2023-04-30T16:10:01.156Z,0.9
2023-04-30T16:15:00.566Z,2.8
2023-04-30T16:20:00.768Z,0.8
2023-04-30T16:25:00.652Z,3.0
2023-04-30T16:30:00.880Z,2.4
2023-04-30T16:35:00.692Z,2.2
2023-04-30T16:40:00.578Z,2.1
2023-04-30T16:45:00.593Z,2.1
2023-04-30T16:50:00.805Z,1.6
2023-04-30T16:55:00.512Z,3.6
2023-04-30T17:00:00.927Z,2.5
2023-04-30T17:05:00.592Z,3.6
2023-04-30T17:10:00.566Z,1.9
2023-04-30T17:15:00.639Z,2.3
2023-04-30T17:20:00.714Z,1.7
2023-04-30T17:25:02.026Z,2.4
2023-04-30T17:30:00.607Z,3.1
2023-04-30T17:35:00.540Z,2.3
2023-04-30T17:40:00.580Z,2.4
2023-04-30T17:45:00.581Z,2.7
2023-04-30T17:50:01.162Z,3.1
2023-04-30T17:55:00.548Z,1.6
2023-04-30T18:00:00.572Z,1.0
2023-04-30T18:05:00.531Z,0.8
2023-04-30T18:20:00.462Z,0.0
2023-04-30T18:25:00.370Z,0.0
2023-04-30T18:30:00.598Z,0.0
2023-04-30T18:35:00.432Z,0.0
2023-04-30T18:40:00.527Z,0.0
2023-04-30T18:45:00.408Z,0.0
2023-04-30T18:50:00.411Z,0.0
2023-04-30T18:55:00.368Z,0.0
2023-04-30T19:00:00.474Z,0.0
2023-04-30T19:05:00.393Z,0.0
2023-04-30T19:10:00.452Z,0.1
2023-04-30T19:15:00.398Z,0.0
2023-04-30T19:20:00.456Z,0.0
2023-04-30T19:25:00.354Z,0.0
2023-04-30T19:30:00.433Z,0.0
2023-04-30T19:35:00.383Z,0.0
2023-04-30T19:40:00.473Z,0.0
2023-04-30T19:45:00.416Z,0.0
2023-04-30T19:50:00.438Z,0.0
2023-04-30T19:55:00.442Z,0.0
2023-04-30T20:00:00.455Z,0.0
2023-04-30T20:05:00.409Z,0.0
2023-04-30T20:15:00.780Z,0.0
2023-04-30T20:20:00.658Z,0.0
2023-04-30T20:25:00.637Z,0.0
2023-04-30T20:30:00.654Z,0.0
2023-04-30T20:35:00.571Z,0.0
2023-04-30T20:40:00.596Z,0.0
2023-04-30T20:45:05.296Z,0.3
2023-04-30T20:50:00.626Z,0.2
2023-04-30T20:55:00.614Z,0.0
2023-04-30T21:00:00.607Z,0.2
2023-04-30T21:05:00.604Z,0.3
2023-04-30T21:10:00.599Z,1.3
2023-04-30T21:15:00.629Z,0.6
2023-04-30T21:20:00.896Z,0.2
2023-04-30T21:25:00.580Z,0.1
2023-04-30T21:30:00.619Z,0.0
2023-04-30T21:35:00.601Z,0.0
2023-04-30T21:40:00.555Z,0.0
2023-04-30T21:45:00.584Z,0.0
2023-04-30T21:50:00.584Z,0.0
2023-04-30T21:55:00.575Z,0.0
2023-04-30T22:00:00.624Z,0.0
2023-04-30T22:05:00.550Z,0.0
2023-04-30T22:10:00.552Z,0.0
2023-04-30T22:15:00.554Z,0.0
2023-04-30T22:20:00.603Z,0.0
2023-04-30T22:25:00.568Z,0.0
2023-04-30T22:30:00.559Z,0.0
2023-04-30T22:35:00.565Z,0.0
2023-04-30T22:40:00.574Z,0.0
2023-04-30T22:45:00.582Z,0.0
2023-04-30T22:50:00.620Z,0.0
2023-04-30T22:55:00.618Z,0.0
2023-04-30T23:00:00.644Z,0.0
2023-04-30T23:05:00.577Z,0.7
2023-04-30T23:10:00.641Z,0.1
2023-04-30T23:15:00.700Z,0.2
2023-04-30T23:20:00.651Z,0.2
2023-04-30T23:25:00.586Z,0.7
2023-04-30T23:30:00.635Z,2.1
2023-04-30T23:35:00.557Z,2.6
2023-04-30T23:40:00.639Z,3.3
2023-04-30T23:45:00.667Z,1.9
2023-04-30T23:50:00.631Z,1.1
2023-04-30T23:55:00.990Z,1.4
